createdAt,value
2019-05-01T00:24:41.870Z,11.22
2019-05-01T00:27:31.047Z,11.19
2019-05-01T00:30:29.695Z,11.13
2019-05-01T00:33:14.208Z,11.09
2019-05-01T00:36:04.828Z,11.05
2019-05-01T00:38:54.248Z,11.01
2019-05-01T00:41:44.706Z,10.97
2019-05-01T00:44:34.128Z,10.94
2019-05-01T00:47:23.444Z,10.90
2019-05-01T00:50:12.585Z,10.86
2019-05-01T00:53:02.532Z,10.84
2019-05-01T00:55:59.763Z,10.81
2019-05-01T00:59:01.627Z,10.78
2019-05-01T01:02:22.128Z,10.77
2019-05-01T01:05:11.533Z,10.75
2019-05-01T01:08:01.244Z,10.74
2019-05-01T01:10:51.082Z,10.73
2019-05-01T01:13:40.234Z,10.73
2019-05-01T01:16:29.527Z,10.72
2019-05-01T01:19:19.159Z,10.72
2019-05-01T01:22:08.926Z,10.71
2019-05-01T01:24:57.964Z,10.71
2019-05-01T01:27:46.833Z,10.72
2019-05-01T01:30:35.934Z,10.73
2019-05-01T01:33:25.854Z,10.73
2019-05-01T01:36:14.755Z,10.72
2019-05-01T01:39:05.710Z,10.74
2019-05-01T01:41:55.476Z,10.74
2019-05-01T01:45:11.074Z,10.74
2019-05-01T01:48:10.509Z,10.73
2019-05-01T01:50:59.521Z,10.74
2019-05-01T01:53:48.923Z,10.74
2019-05-01T01:56:38.589Z,10.74
2019-05-01T01:59:28.248Z,10.75
2019-05-01T02:02:25.733Z,10.73
2019-05-01T02:05:21.101Z,10.74
2019-05-01T02:08:10.364Z,10.73
2019-05-01T02:10:59.537Z,10.72
2019-05-01T02:13:49.136Z,10.73
2019-05-01T02:16:38.125Z,10.72
2019-05-01T02:19:27.844Z,10.73
2019-05-01T02:22:17.335Z,10.73
2019-05-01T02:25:09.108Z,10.73
2019-05-01T02:28:32.969Z,10.74
2019-05-01T02:31:30.030Z,10.74
2019-05-01T02:34:20.019Z,10.74
2019-05-01T02:37:08.683Z,10.74
2019-05-01T02:39:58.541Z,10.74
2019-05-01T02:42:47.593Z,10.74
2019-05-01T02:45:37.148Z,10.74
2019-05-01T02:48:26.095Z,10.73
2019-05-01T02:51:15.475Z,10.74
2019-05-01T02:54:04.818Z,10.74
2019-05-01T02:56:59.496Z,10.74
2019-05-01T02:59:51.638Z,10.73
2019-05-01T03:02:41.194Z,10.74
2019-05-01T03:05:31.058Z,10.73
2019-05-01T03:08:20.243Z,10.73
2019-05-01T03:11:09.762Z,10.71
2019-05-01T03:13:58.994Z,10.70
2019-05-01T03:16:48.979Z,10.72
2019-05-01T03:19:58.030Z,10.71
2019-05-01T03:23:06.094Z,10.69
2019-05-01T03:25:55.940Z,10.69
2019-05-01T03:28:45.512Z,10.68
2019-05-01T03:31:34.197Z,10.68
2019-05-01T03:34:23.515Z,10.67
2019-05-01T03:37:13.135Z,10.66
2019-05-01T03:40:02.672Z,10.66
2019-05-01T03:42:51.365Z,10.65
2019-05-01T03:45:41.302Z,10.64
2019-05-01T03:48:31.202Z,10.62
2019-05-01T03:51:21.618Z,10.61
2019-05-01T03:54:11.027Z,10.61
2019-05-01T03:56:59.779Z,10.60
2019-05-01T03:59:49.058Z,10.59
2019-05-01T04:02:47.429Z,10.59
2019-05-01T04:05:37.123Z,10.59
2019-05-01T04:08:26.689Z,10.57
2019-05-01T04:11:15.895Z,10.56
2019-05-01T04:14:05.900Z,10.57
2019-05-01T04:17:02.719Z,10.56
2019-05-01T04:19:53.207Z,10.53
2019-05-01T04:22:42.820Z,10.52
2019-05-01T04:25:32.823Z,10.53
2019-05-01T04:28:45.055Z,10.52
2019-05-01T04:31:43.152Z,10.51
2019-05-01T04:34:39.456Z,10.51
2019-05-01T04:37:28.958Z,10.50
2019-05-01T04:40:19.100Z,10.51
2019-05-01T04:43:08.743Z,10.51
2019-05-01T04:45:57.867Z,10.51
2019-05-01T04:48:47.081Z,10.51
2019-05-01T04:51:35.998Z,10.51
2019-05-01T04:54:27.048Z,10.50
2019-05-01T04:57:16.959Z,10.52
2019-05-01T05:00:08.730Z,10.53
2019-05-01T05:03:10.146Z,10.53
2019-05-01T05:05:59.823Z,10.55
2019-05-01T05:08:48.701Z,10.55
2019-05-01T05:11:49.163Z,10.56
2019-05-01T05:14:41.009Z,10.57
2019-05-01T05:17:30.633Z,10.60
2019-05-01T05:20:19.773Z,10.60
2019-05-01T05:23:09.459Z,10.62
2019-05-01T05:25:59.123Z,10.62
2019-05-01T05:28:49.370Z,10.63
2019-05-01T05:31:38.794Z,10.64
2019-05-01T05:34:28.868Z,10.66
2019-05-01T05:37:24.029Z,10.68
2019-05-01T05:40:13.862Z,10.70
2019-05-01T05:43:03.354Z,10.71
2019-05-01T05:45:52.217Z,10.74
2019-05-01T05:48:41.076Z,10.75
2019-05-01T05:51:41.065Z,10.78
2019-05-01T05:55:01.035Z,10.80
2019-05-01T05:58:15.176Z,10.81
2019-05-01T06:01:25.632Z,10.85
2019-05-01T06:04:29.368Z,10.90
2019-05-01T06:07:49.722Z,10.93
2019-05-01T06:10:46.909Z,10.97
2019-05-01T06:13:57.075Z,10.99
2019-05-01T06:17:03.810Z,11.03
2019-05-01T06:19:57.645Z,11.08
2019-05-01T06:23:05.360Z,11.10
2019-05-01T06:25:59.987Z,11.15
2019-05-01T06:28:49.830Z,11.18
2019-05-01T06:31:39.262Z,11.22
2019-05-01T06:34:28.695Z,11.23
2019-05-01T06:37:20.832Z,11.29
2019-05-01T06:40:11.835Z,11.34
2019-05-01T06:43:01.626Z,11.37
2019-05-01T06:45:59.967Z,11.43
2019-05-01T06:48:54.733Z,11.47
2019-05-01T06:51:48.055Z,11.52
2019-05-01T06:54:37.757Z,11.57
2019-05-01T06:57:27.337Z,11.63
2019-05-01T07:00:17.803Z,11.68
2019-05-01T07:03:10.443Z,11.73
2019-05-01T07:05:58.306Z,11.79
2019-05-01T07:08:50.301Z,11.85
2019-05-01T07:11:42.322Z,11.92
2019-05-01T07:14:31.294Z,12.00
2019-05-01T07:17:20.693Z,12.06
2019-05-01T07:20:22.259Z,12.11
2019-05-01T07:23:12.718Z,12.17
2019-05-01T07:26:02.410Z,12.24
2019-05-01T07:28:55.809Z,12.31
2019-05-01T07:31:44.845Z,12.37
2019-05-01T07:34:34.812Z,12.43
2019-05-01T07:37:25.864Z,12.50
2019-05-01T07:40:14.059Z,12.55
2019-05-01T07:43:11.840Z,12.62
2019-05-01T07:46:07.199Z,12.68
2019-05-01T07:48:56.733Z,12.74
2019-05-01T07:51:53.700Z,12.78
2019-05-01T07:54:43.540Z,12.83
2019-05-01T07:57:34.143Z,12.87
2019-05-01T08:00:41.561Z,12.90
2019-05-01T08:03:28.959Z,12.95
2019-05-01T08:06:21.490Z,13.01
2019-05-01T08:09:11.355Z,13.05
2019-05-01T08:12:01.171Z,13.09
2019-05-01T08:14:52.371Z,13.13
2019-05-01T08:17:43.770Z,13.17
2019-05-01T08:20:38.975Z,13.21
2019-05-01T08:23:28.344Z,13.25
2019-05-01T08:26:17.546Z,13.30
2019-05-01T08:29:36.991Z,13.34
2019-05-01T08:32:44.186Z,13.39
2019-05-01T08:35:36.393Z,13.42
2019-05-01T08:38:25.614Z,13.46
2019-05-01T08:41:16.903Z,13.51
2019-05-01T08:44:07.708Z,13.55
2019-05-01T08:47:10.391Z,13.60
2019-05-01T08:50:10.565Z,13.64
2019-05-01T08:53:05.414Z,13.69
2019-05-01T08:55:56.868Z,13.76
2019-05-01T08:58:49.396Z,13.80
2019-05-01T09:01:40.663Z,13.87
2019-05-01T09:04:32.375Z,13.93
2019-05-01T09:07:24.073Z,13.99
2019-05-01T09:10:17.049Z,14.05
2019-05-01T09:13:04.238Z,14.10
2019-05-01T09:15:53.538Z,14.15
2019-05-01T09:18:42.544Z,14.21
2019-05-01T09:21:33.330Z,14.26
2019-05-01T09:24:23.318Z,14.32
2019-05-01T09:27:23.788Z,14.38
2019-05-01T09:30:21.826Z,14.44
2019-05-01T09:33:09.454Z,14.49
2019-05-01T09:35:58.822Z,14.53
2019-05-01T09:38:50.085Z,14.61
2019-05-01T09:41:43.223Z,14.66
2019-05-01T09:44:31.303Z,14.72
2019-05-01T09:47:21.617Z,14.79
2019-05-01T09:50:10.680Z,14.85
2019-05-01T09:53:10.217Z,14.92
2019-05-01T09:56:09.149Z,14.98
2019-05-01T09:58:58.455Z,15.05
2019-05-01T10:01:47.193Z,15.09
2019-05-01T10:04:36.338Z,15.14
2019-05-01T10:07:29.017Z,15.18
2019-05-01T10:10:17.139Z,15.23
2019-05-01T10:13:06.836Z,15.28
2019-05-01T10:15:56.332Z,15.31
2019-05-01T10:18:45.659Z,15.34
2019-05-01T10:21:37.561Z,15.41
2019-05-01T10:24:27.064Z,15.47
2019-05-01T10:27:18.843Z,15.52
2019-05-01T10:30:39.669Z,15.57
2019-05-01T10:33:32.706Z,15.64
2019-05-01T10:36:38.940Z,15.73
2019-05-01T10:39:30.186Z,15.82
2019-05-01T10:42:19.789Z,15.91
2019-05-01T10:45:08.883Z,16.00
2019-05-01T10:47:58.550Z,16.07
2019-05-01T10:50:48.186Z,16.16
2019-05-01T10:53:37.468Z,16.23
2019-05-01T10:56:27.097Z,16.34
2019-05-01T10:59:16.798Z,16.46
2019-05-01T11:02:08.135Z,16.60
2019-05-01T11:04:58.530Z,16.72
2019-05-01T11:07:47.850Z,16.86
2019-05-01T11:10:37.439Z,16.97
2019-05-01T11:13:26.616Z,17.07
2019-05-01T11:16:16.757Z,17.18
2019-05-01T11:19:06.229Z,17.29
2019-05-01T11:21:56.075Z,17.42
2019-05-01T11:24:45.105Z,17.55
2019-05-01T11:27:34.390Z,17.66
2019-05-01T11:30:24.040Z,17.75
2019-05-01T11:33:20.052Z,17.81
2019-05-01T11:36:18.313Z,17.87
2019-05-01T11:39:35.965Z,17.96
2019-05-01T11:42:24.793Z,18.05
2019-05-01T11:45:14.060Z,18.15
2019-05-01T11:48:03.095Z,18.21
2019-05-01T11:50:52.708Z,18.25
2019-05-01T11:53:42.301Z,18.27
2019-05-01T11:56:32.496Z,18.31
2019-05-01T11:59:21.280Z,18.38
2019-05-01T12:02:10.845Z,18.45
2019-05-01T12:05:00.168Z,18.54
2019-05-01T12:07:50.195Z,18.65
2019-05-01T12:10:39.814Z,18.75
2019-05-01T12:13:43.057Z,18.85
2019-05-01T12:16:26.403Z,18.96
2019-05-01T12:19:16.832Z,19.03
2019-05-01T12:22:06.226Z,19.11
2019-05-01T12:24:55.804Z,19.18
2019-05-01T12:27:45.709Z,19.26
2019-05-01T12:30:34.916Z,19.32
2019-05-01T12:33:24.091Z,19.38
2019-05-01T12:36:13.682Z,19.45
2019-05-01T12:39:03.555Z,19.55
2019-05-01T12:41:59.608Z,19.63
2019-05-01T12:44:49.044Z,19.72
2019-05-01T12:47:45.793Z,19.78
2019-05-01T12:50:35.070Z,19.85
2019-05-01T12:53:40.252Z,19.92
2019-05-01T12:56:39.839Z,19.98
2019-05-01T12:59:29.229Z,20.05
2019-05-01T13:02:18.714Z,20.18
2019-05-01T13:05:08.603Z,20.36
2019-05-01T13:07:57.336Z,20.52
2019-05-01T13:10:46.581Z,20.65
2019-05-01T13:13:35.948Z,20.74
2019-05-01T13:16:24.956Z,20.80
2019-05-01T13:19:15.115Z,20.88
2019-05-01T13:22:08.319Z,20.92
2019-05-01T13:25:00.179Z,20.93
2019-05-01T13:27:59.119Z,20.91
2019-05-01T13:30:57.014Z,20.88
2019-05-01T13:33:46.525Z,20.81
2019-05-01T13:36:36.433Z,20.74
2019-05-01T13:39:25.906Z,20.69
2019-05-01T13:42:16.599Z,20.64
2019-05-01T13:45:06.887Z,20.57
2019-05-01T13:47:58.711Z,20.51
2019-05-01T13:50:48.954Z,20.46
2019-05-01T13:53:39.156Z,20.41
2019-05-01T13:56:29.391Z,20.34
2019-05-01T13:59:19.498Z,20.29
2019-05-01T14:02:08.587Z,20.23
2019-05-01T14:04:58.845Z,20.16
2019-05-01T14:07:48.711Z,20.11
2019-05-01T14:10:40.974Z,20.04
2019-05-01T14:13:30.758Z,19.99
2019-05-01T14:16:19.826Z,19.93
2019-05-01T14:19:12.764Z,19.87
2019-05-01T14:22:19.973Z,19.81
2019-05-01T14:25:13.254Z,19.80
2019-05-01T14:28:02.960Z,19.77
2019-05-01T14:30:52.524Z,19.73
2019-05-01T14:33:42.090Z,19.71
2019-05-01T14:36:31.205Z,19.69
2019-05-01T14:39:20.252Z,19.63
2019-05-01T14:42:10.461Z,19.62
2019-05-01T14:44:59.899Z,19.58
2019-05-01T14:47:49.593Z,19.57
2019-05-01T14:50:38.940Z,19.55
2019-05-01T14:53:28.507Z,19.53
2019-05-01T14:56:18.084Z,19.52
2019-05-01T14:59:07.487Z,19.50
2019-05-01T15:01:56.834Z,19.47
2019-05-01T15:04:46.068Z,19.45
2019-05-01T15:07:43.265Z,19.44
2019-05-01T15:10:26.865Z,19.41
2019-05-01T15:13:34.000Z,19.40
2019-05-01T15:16:45.813Z,19.40
2019-05-01T15:19:37.502Z,19.41
2019-05-01T15:22:26.288Z,19.39
2019-05-01T15:25:15.894Z,19.38
2019-05-01T15:28:05.880Z,19.34
2019-05-01T15:30:55.147Z,19.28
2019-05-01T15:33:48.524Z,19.25
2019-05-01T15:36:38.515Z,19.21
2019-05-01T15:39:39.766Z,19.15
2019-05-01T15:43:00.248Z,19.12
2019-05-01T15:45:49.942Z,19.07
2019-05-01T15:48:39.348Z,19.03
2019-05-01T15:51:28.876Z,18.99
2019-05-01T15:54:17.797Z,18.94
2019-05-01T15:57:08.014Z,18.91
2019-05-01T15:59:59.051Z,18.85
2019-05-01T16:02:48.426Z,18.80
2019-05-01T16:05:37.750Z,18.77
2019-05-01T16:08:26.517Z,18.73
2019-05-01T16:11:44.396Z,18.69
2019-05-01T16:14:33.846Z,18.65
2019-05-01T16:17:25.705Z,18.58
2019-05-01T16:20:16.865Z,18.51
2019-05-01T16:23:06.189Z,18.45
2019-05-01T16:25:55.850Z,18.40
2019-05-01T16:28:46.561Z,18.35
2019-05-01T16:31:36.236Z,18.29
2019-05-01T16:34:26.123Z,18.27
2019-05-01T16:37:15.763Z,18.36
2019-05-01T16:40:23.807Z,18.48
2019-05-01T16:43:13.952Z,18.59
2019-05-01T16:46:03.649Z,18.74
2019-05-01T16:48:54.658Z,18.87
2019-05-01T16:51:44.425Z,18.96
2019-05-01T16:54:33.995Z,18.99
2019-05-01T16:57:25.725Z,18.99
2019-05-01T17:00:17.244Z,18.96
2019-05-01T17:03:14.390Z,18.94
2019-05-01T17:06:14.853Z,18.86
2019-05-01T17:09:23.656Z,18.80
2019-05-01T17:12:13.829Z,18.74
2019-05-01T17:15:03.516Z,18.64
2019-05-01T17:17:52.853Z,18.57
2019-05-01T17:20:41.633Z,18.45
2019-05-01T17:23:31.162Z,18.36
2019-05-01T17:26:22.686Z,18.26
2019-05-01T17:29:12.107Z,18.16
2019-05-01T17:32:05.083Z,18.03
2019-05-01T17:34:53.059Z,17.91
2019-05-01T17:37:42.676Z,17.80
2019-05-01T17:40:32.628Z,17.68
2019-05-01T17:43:21.871Z,17.57
2019-05-01T17:46:12.069Z,17.47
2019-05-01T17:49:04.181Z,17.37
2019-05-01T17:51:52.445Z,17.29
2019-05-01T17:54:42.077Z,17.18
2019-05-01T17:57:33.627Z,17.08
2019-05-01T18:00:34.564Z,16.99
2019-05-01T18:03:38.373Z,16.89
2019-05-01T18:06:32.900Z,16.81
2019-05-01T18:09:22.142Z,16.71
2019-05-01T18:12:11.814Z,16.61
2019-05-01T18:15:01.347Z,16.52
2019-05-01T18:17:51.179Z,16.44
2019-05-01T18:20:41.046Z,16.35
2019-05-01T18:23:49.529Z,16.25
2019-05-01T18:26:56.382Z,16.18
2019-05-01T18:29:48.362Z,16.08
2019-05-01T18:32:46.903Z,15.99
2019-05-01T18:35:35.098Z,15.88
2019-05-01T18:38:30.157Z,15.80
2019-05-01T18:41:38.230Z,15.70
2019-05-01T18:44:27.310Z,15.60
2019-05-01T18:47:16.631Z,15.51
2019-05-01T18:50:06.102Z,15.40
2019-05-01T18:52:56.623Z,15.31
2019-05-01T18:55:45.457Z,15.21
2019-05-01T18:58:34.857Z,15.12
2019-05-01T19:01:24.129Z,15.03
2019-05-01T19:04:13.272Z,14.93
2019-05-01T19:07:02.175Z,14.83
2019-05-01T19:09:51.369Z,14.74
2019-05-01T19:12:41.322Z,14.65
2019-05-01T19:15:30.892Z,14.55
2019-05-01T19:18:20.028Z,14.46
2019-05-01T19:21:10.314Z,14.37
2019-05-01T19:24:01.115Z,14.28
2019-05-01T19:26:51.831Z,14.18
2019-05-01T19:29:41.197Z,14.09
2019-05-01T19:32:31.170Z,14.01
2019-05-01T19:35:23.688Z,13.91
2019-05-01T19:38:10.785Z,13.83
2019-05-01T19:41:03.476Z,13.76
2019-05-01T19:43:51.055Z,13.67
2019-05-01T19:46:40.453Z,13.57
2019-05-01T19:49:30.844Z,13.50
2019-05-01T19:52:20.697Z,13.42
2019-05-01T19:55:10.025Z,13.34
2019-05-01T19:57:59.837Z,13.26
2019-05-01T20:01:04.041Z,13.19
2019-05-01T20:03:51.190Z,13.13
2019-05-01T20:06:41.153Z,13.05
2019-05-01T20:09:30.585Z,12.99
2019-05-01T20:12:20.919Z,12.91
2019-05-01T20:15:10.566Z,12.84
2019-05-01T20:18:00.048Z,12.78
2019-05-01T20:20:48.836Z,12.72
2019-05-01T20:23:38.048Z,12.66
2019-05-01T20:26:32.254Z,12.59
2019-05-01T20:29:17.952Z,12.53
2019-05-01T20:32:07.266Z,12.48
2019-05-01T20:34:59.247Z,12.41
2019-05-01T20:37:47.300Z,12.37
2019-05-01T20:40:41.183Z,12.30
2019-05-01T20:43:30.284Z,12.24
2019-05-01T20:46:21.516Z,12.18
2019-05-01T20:49:10.853Z,12.13
2019-05-01T20:52:00.823Z,12.08
2019-05-01T20:54:50.122Z,12.04
2019-05-01T20:57:40.950Z,11.98
2019-05-01T21:00:30.278Z,11.91
2019-05-01T21:03:19.557Z,11.87
2019-05-01T21:06:21.084Z,11.84
2019-05-01T21:09:16.306Z,11.79
2019-05-01T21:12:05.868Z,11.73
2019-05-01T21:14:55.208Z,11.69
2019-05-01T21:17:49.429Z,11.63
2019-05-01T21:20:35.657Z,11.58
2019-05-01T21:23:26.245Z,11.55
2019-05-01T21:26:15.153Z,11.51
2019-05-01T21:29:04.413Z,11.46
2019-05-01T21:31:54.307Z,11.44
2019-05-01T21:34:43.904Z,11.38
2019-05-01T21:37:33.540Z,11.34
2019-05-01T21:40:23.262Z,11.30
2019-05-01T21:43:13.581Z,11.27
2019-05-01T21:46:03.970Z,11.20
2019-05-01T21:48:53.662Z,11.17
2019-05-01T21:51:46.059Z,11.11
2019-05-01T21:54:33.668Z,11.08
2019-05-01T21:57:24.515Z,11.03
2019-05-01T22:00:15.711Z,10.99
2019-05-01T22:03:06.439Z,10.95
2019-05-01T22:05:56.041Z,10.91
2019-05-01T22:08:45.598Z,10.85
2019-05-01T22:11:37.823Z,10.82
2019-05-01T22:14:41.449Z,10.78
2019-05-01T22:17:49.191Z,10.75
2019-05-01T22:20:43.116Z,10.70
2019-05-01T22:23:35.366Z,10.66
2019-05-01T22:26:25.726Z,10.63
2019-05-01T22:29:17.095Z,10.60
2019-05-01T22:32:19.225Z,10.55
2019-05-01T22:35:21.894Z,10.53
2019-05-01T22:38:11.663Z,10.49
2019-05-01T22:41:11.000Z,10.45
2019-05-01T22:44:00.084Z,10.42
2019-05-01T22:46:49.025Z,10.39
2019-05-01T22:49:39.526Z,10.35
2019-05-01T22:52:29.126Z,10.32
2019-05-01T22:55:20.423Z,10.28
2019-05-01T22:58:09.687Z,10.25
2019-05-01T23:01:00.777Z,10.23
2019-05-01T23:03:53.171Z,10.18
2019-05-01T23:06:43.182Z,10.14
2019-05-01T23:09:33.057Z,10.11
2019-05-01T23:12:22.209Z,10.09
2019-05-01T23:15:19.249Z,10.06
2019-05-01T23:18:10.556Z,10.01
2019-05-01T23:20:59.476Z,9.97
2019-05-01T23:23:48.623Z,9.94
2019-05-01T23:26:38.260Z,9.92
2019-05-01T23:29:28.365Z,9.88
2019-05-01T23:32:18.393Z,9.86
2019-05-01T23:35:07.471Z,9.81
2019-05-01T23:37:57.134Z,9.80
2019-05-01T23:40:51.103Z,9.76
2019-05-01T23:43:37.116Z,9.73
2019-05-01T23:46:26.554Z,9.71
2019-05-01T23:49:15.480Z,9.67
2019-05-01T23:52:05.167Z,9.65
2019-05-01T23:54:55.069Z,9.60
2019-05-01T23:57:44.589Z,9.57
